Nearby METAR Reports

 

EGNM - Leeds And Bradford, United Kingdom
Distance from station: N 11mi, 18km
Updated: 19/01/2020 01:20
Clear
Clear
 Wind from W
Wind: W 10 mph , 17 km/h
Temperature: 0°C
Wind Chill: -4°C
Dew Point: -1°C
Humidity: 93%
Barometer: 1037 hPa
Summary: Clear
Visibility: greater than 7 miles , 10 km
2020/01/19 01:20 EGNM 190120Z 26009KT CAVOK 00/M01 Q1037
EGXU - Linton-On-Ouse, United Kingdom
Distance from station: NNE 28mi, 45km
Updated: 19/01/2020 00:50
Clear
Clear
 Wind from NW
Wind: NW 3 mph , 6 km/h
Temperature: 0°C
Dew Point: -2°C
Humidity: 87%
Barometer: 1037 hPa
Clouds: Clear
Visibility: 6 miles , 10 km
2020/01/19 00:50 EGXU 190050Z AUTO 32003KT 9999 // NCD M00/M02 Q1037
 
EGCN - Doncaster Sheffield, United Kingdom
Distance from station: ESE 30mi, 45km
Updated: 19/01/2020 01:20
Clear
Clear
 Wind from WNW
Wind: WNW 7 mph , 11 km/h
Temperature: 1°C
Wind Chill: -2°C
Dew Point: -1°C
Humidity: 87%
Barometer: 1039 hPa
Summary: Clear
Visibility: greater than 7 miles , 10 km
2020/01/19 01:20 EGCN 190120Z 30006KT CAVOK 01/M01 Q1039
EGXZ - Topcliffe RAF, United Kingdom
Distance from station: NNE 36mi, 57km
Updated: 19/01/2020 00:50
Clear
Clear
 Wind from SSE
Wind: SSE 1 mph , 2 km/h
Temperature: -2°C
Dew Point: -2°C
Humidity: 100%
Barometer: 1037 hPa
Clouds: Clear
Visibility: 6 miles , 10 km
2020/01/19 00:50 EGXZ 190050Z AUTO 15001KT 9999 NCD M02/M02 Q1037
 
EGCC - Manchester Intl, United Kingdom
Distance from station: SW 36mi, 58km
Updated: 19/01/2020 01:20
Freezing Fog
Freezing Fog
 Wind from varies
Wind: varies 2 mph , 4 km/h
Temperature: -1°C
Dew Point: -2°C
Humidity: 93%
Barometer: 1039 hPa
Summary: Freezing Fog
Visibility: 0 mile , 0 km
2020/01/19 01:20 EGCC 190120Z AUTO VRB02KT 0150 R23R/0300 FZFG VV/// M01/M02 Q1039 NOSIG
EGXE - Leeming RAF, United Kingdom
Distance from station: N 40mi, 65km
Updated: 19/01/2020 00:50
Clear
Clear
 Wind from WNW
Wind: WNW 10 mph , 17 km/h
Temperature: 3°C
Wind Chill: -1°C
Dew Point: -1°C
Humidity: 75%
Barometer: 1037 hPa
Clouds: Clear
Visibility: 6 miles , 10 km
2020/01/19 00:50 EGXE 190050Z AUTO 29009KT 9999 NCD 03/M01 Q1037